Calumet Park, IL (60827)

2:40 PM CDT on July 25, 2016 (GMT -0500)
Thornton Junction | | Change Station

Elev 614 ft 41.59 °N, 87.60 °W | Updated 15 minutes ago

Clear
Clear
88.3 °F
Feels Like 92 °F
N
4.2
Wind Variable Wind from SE

Today
High -- | Low -- °F
--% Chance of Precip.
Yesterday
High -- | Low -- °F
Precip. -- in
Pressure 30.00 in
Visibility 10.0 miles
Clouds Clear
Heat Index 92 °F
Dew Point 68 °F
Humidity 52%
Rainfall 0.00 in
Snow Depth Not available.
5:38 AM 8:14 PM
Waning Gibbous, 63% visible
METAR KIGQ 251935Z AUTO 00000KT 10SM CLR 29/17 A3000 RMK AO2 T02890173
Pressure 30.00 in
Visibility 10.0 miles
Clouds Clear
Heat Index 92 °F
Dew Point 68 °F
Humidity 52%
Rainfall 0.00 in
Snow Depth Not available.
5:38 AM 8:14 PM
Waning Gibbous, 63% visible
METAR KIGQ 251935Z AUTO 00000KT 10SM CLR 29/17 A3000 RMK AO2 T02890173

10-Day Weather Forecast

Almanac

Astronomy

Jul. 25, 2016 Rise Set
Actual Time
Civil Twilight
Nautical Twilight
Astronomical Twilight
Moon
Length of Visible Light
Length of Day
Tomorrow will be .
, % of the Moon is Illuminated

Today's Extremes

State Highs State Lows

Community

WunderPhotos

Upload Photos

1,927,388 photos uploaded!

WunderBlog® & News

Nearby

Air Quality

  Air Quality AQ Index Pollutant
Not available.

Snow Depth

Station Depth Elevation

Earthquake Activity

City Distance Mag. Time & Date
Minimum magnitude displayed is 2.5.

Coastal Water Temperatures

Place Temperature

Stations

Nearby Weather Stations

Station Location Temp. Windchill Dew Point Humidity Wind Precip. Elev Updated Type
                   

Watches & Warnings

Flood Advisory
Issued: 8:56 AM CDT Jul. 25, 2016 – National Weather Service

The Flood Advisory continues for
the North Branch Chicago river at Chicago Albany Ave
* until this afternoon.
* At 800 am Monday the stage was 5.8 feet.
* Action stage is 5.0 feet.
* Flood stage is 7.0 feet.
* Forecast... the river will continue to fall.


Lat... Lon 4203 8775 4196 8781 4194 8774 4189 8771
      4194 8765 4198 8767


Wdm